createdAt,value
2023-04-29T00:00:43.729Z,99.90
2023-04-29T00:03:10.746Z,99.90
2023-04-29T00:05:37.604Z,99.90
2023-04-29T00:08:04.703Z,99.90
2023-04-29T00:10:31.250Z,99.90
2023-04-29T00:12:57.819Z,99.90
2023-04-29T00:15:24.448Z,99.90
2023-04-29T00:17:51.015Z,99.90
2023-04-29T00:20:17.657Z,99.90
2023-04-29T00:22:44.160Z,99.90
2023-04-29T00:25:11.861Z,99.90
2023-04-29T00:27:39.369Z,99.90
2023-04-29T00:30:08.140Z,99.90
2023-04-29T00:32:34.698Z,99.90
2023-04-29T00:35:01.659Z,99.90
2023-04-29T00:37:28.262Z,99.90
2023-04-29T00:39:55.007Z,99.90
2023-04-29T00:42:22.374Z,99.90
2023-04-29T00:44:48.918Z,99.90
2023-04-29T00:47:15.438Z,99.90
2023-04-29T00:49:42.066Z,99.90
2023-04-29T00:52:10.000Z,99.90
2023-04-29T00:54:37.688Z,99.90
2023-04-29T00:57:07.077Z,99.90
2023-04-29T00:59:34.404Z,99.90
2023-04-29T01:02:02.922Z,99.90
2023-04-29T01:04:30.125Z,99.90
2023-04-29T01:07:15.457Z,99.90
2023-04-29T01:10:02.870Z,99.90
2023-04-29T01:12:47.218Z,99.90
2023-04-29T01:15:33.479Z,99.90
2023-04-29T01:18:05.029Z,99.90
2023-04-29T01:20:33.300Z,99.90
2023-04-29T01:22:59.803Z,99.90
2023-04-29T01:25:26.923Z,99.90
2023-04-29T01:28:07.888Z,99.90
2023-04-29T01:30:43.122Z,99.90
2023-04-29T01:33:32.183Z,99.90
2023-04-29T01:36:22.073Z,99.90
2023-04-29T01:39:06.868Z,99.90
2023-04-29T01:41:39.352Z,99.90
2023-04-29T01:44:08.772Z,99.90
2023-04-29T01:46:35.889Z,99.90
2023-04-29T01:49:02.458Z,99.90
2023-04-29T01:51:29.651Z,99.90
2023-04-29T01:53:56.881Z,99.90
2023-04-29T01:56:23.596Z,99.90
2023-04-29T01:58:50.156Z,99.90
2023-04-29T02:01:16.717Z,99.90
2023-04-29T02:03:43.428Z,99.90
2023-04-29T02:06:10.120Z,99.90
2023-04-29T02:08:37.253Z,99.90
2023-04-29T02:11:03.935Z,99.90
2023-04-29T02:13:30.494Z,99.90
2023-04-29T02:15:57.164Z,99.90
2023-04-29T02:18:23.961Z,99.90
2023-04-29T02:20:51.562Z,99.90
2023-04-29T02:23:18.332Z,99.90
2023-04-29T02:25:44.886Z,99.90
2023-04-29T02:28:12.015Z,99.90
2023-04-29T02:30:38.535Z,99.90
2023-04-29T02:33:07.761Z,99.90
2023-04-29T02:35:35.004Z,99.90
2023-04-29T02:38:01.771Z,99.90
2023-04-29T02:40:28.866Z,99.90
2023-04-29T02:42:55.412Z,99.90
2023-04-29T02:45:22.420Z,99.90
2023-04-29T02:47:49.075Z,99.90
2023-04-29T02:50:15.734Z,99.90
2023-04-29T02:52:42.269Z,99.90
2023-04-29T02:55:09.357Z,99.90
2023-04-29T02:57:35.849Z,99.90
2023-04-29T03:00:03.799Z,99.90
2023-04-29T03:02:30.422Z,99.90
2023-04-29T03:04:56.951Z,99.90
2023-04-29T03:07:23.508Z,99.90
2023-04-29T03:09:50.109Z,99.90
2023-04-29T03:12:16.729Z,99.90
2023-04-29T03:14:43.331Z,99.90
2023-04-29T03:17:10.069Z,99.90
2023-04-29T03:19:36.584Z,99.90
2023-04-29T03:22:03.134Z,99.90
2023-04-29T03:24:29.674Z,99.90
2023-04-29T03:26:56.262Z,99.90
2023-04-29T03:29:22.881Z,99.90
2023-04-29T03:31:49.453Z,99.90
2023-04-29T03:34:16.084Z,99.90
2023-04-29T03:36:42.580Z,99.90
2023-04-29T03:39:09.173Z,99.90
2023-04-29T03:41:35.777Z,99.90
2023-04-29T03:44:02.453Z,99.90
2023-04-29T03:46:29.302Z,99.90
2023-04-29T03:48:58.620Z,99.90
2023-04-29T03:51:25.866Z,99.90
2023-04-29T03:53:54.512Z,99.90
2023-04-29T03:56:21.151Z,99.90
2023-04-29T03:58:47.632Z,99.90
2023-04-29T04:01:15.187Z,99.90
2023-04-29T04:03:43.406Z,99.90
2023-04-29T04:06:10.093Z,99.90
2023-04-29T04:08:36.681Z,99.90
2023-04-29T04:11:03.299Z,99.90
2023-04-29T04:13:29.961Z,99.90
2023-04-29T04:15:56.670Z,99.90
2023-04-29T04:18:23.273Z,99.90
2023-04-29T04:20:49.790Z,99.90
2023-04-29T04:23:16.430Z,99.90
2023-04-29T04:25:47.024Z,99.90
2023-04-29T04:28:13.551Z,99.90
2023-04-29T04:30:40.408Z,99.90
2023-04-29T04:33:07.120Z,99.90
2023-04-29T04:35:33.783Z,99.90
2023-04-29T04:38:00.318Z,99.90
2023-04-29T04:40:27.726Z,99.90
2023-04-29T04:42:55.215Z,99.90
2023-04-29T04:45:22.047Z,99.90
2023-04-29T04:47:48.631Z,99.90
2023-04-29T04:50:15.259Z,99.90
2023-04-29T04:52:42.555Z,99.90
2023-04-29T04:55:09.666Z,99.90
2023-04-29T04:57:36.163Z,99.90
2023-04-29T05:00:04.000Z,99.90
2023-04-29T05:02:30.587Z,99.90
2023-04-29T05:04:57.149Z,99.90
2023-04-29T05:07:23.736Z,99.90
2023-04-29T05:09:50.574Z,99.90
2023-04-29T05:12:17.313Z,99.90
2023-04-29T05:14:43.848Z,99.90
2023-04-29T05:17:11.186Z,99.90
2023-04-29T05:19:37.685Z,99.90
2023-04-29T05:22:04.183Z,99.90
2023-04-29T05:24:30.888Z,99.90
2023-04-29T05:26:57.412Z,99.90
2023-04-29T05:29:24.010Z,99.90
2023-04-29T05:31:51.184Z,99.90
2023-04-29T05:34:17.787Z,99.90
2023-04-29T05:36:44.311Z,99.90
2023-04-29T05:39:11.219Z,99.90
2023-04-29T05:41:37.739Z,99.90
2023-04-29T05:44:04.417Z,99.90
2023-04-29T05:46:31.092Z,99.90
2023-04-29T05:48:57.589Z,99.90
2023-04-29T05:51:24.083Z,99.90
2023-04-29T05:53:50.684Z,99.90
2023-04-29T05:56:17.931Z,99.90
2023-04-29T05:58:44.440Z,99.90
2023-04-29T06:01:11.332Z,99.90
2023-04-29T06:03:38.987Z,99.90
2023-04-29T06:06:05.915Z,99.90
2023-04-29T06:08:32.456Z,99.90
2023-04-29T06:10:58.957Z,99.90
2023-04-29T06:13:26.178Z,99.90
2023-04-29T06:15:52.808Z,99.90
2023-04-29T06:18:20.758Z,99.90
2023-04-29T06:20:47.374Z,99.90
2023-04-29T06:23:14.073Z,99.90
2023-04-29T06:25:40.675Z,99.90
2023-04-29T06:28:08.383Z,99.90
2023-04-29T06:30:34.981Z,99.90
2023-04-29T06:33:01.549Z,99.90
2023-04-29T06:35:28.208Z,99.90
2023-04-29T06:37:56.403Z,99.90
2023-04-29T06:40:22.931Z,99.90
2023-04-29T06:42:49.433Z,99.90
2023-04-29T06:45:16.041Z,99.90
2023-04-29T06:47:43.520Z,99.90
2023-04-29T06:50:10.505Z,99.90
2023-04-29T06:52:37.079Z,99.90
2023-04-29T06:55:03.902Z,99.90
2023-04-29T06:57:31.999Z,99.90
2023-04-29T06:59:58.778Z,99.90
2023-04-29T07:02:25.427Z,99.90
2023-04-29T07:04:52.553Z,99.90
2023-04-29T07:07:19.319Z,99.90
2023-04-29T07:09:45.911Z,99.90
2023-04-29T07:12:12.676Z,99.90
2023-04-29T07:14:40.727Z,99.90
2023-04-29T07:17:07.433Z,99.90
2023-04-29T07:19:34.104Z,99.90
2023-04-29T07:22:00.982Z,99.90
2023-04-29T07:24:27.593Z,99.90
2023-04-29T07:26:54.129Z,99.90
2023-04-29T07:29:20.713Z,99.90
2023-04-29T07:31:47.226Z,99.90
2023-04-29T07:34:13.884Z,99.90
2023-04-29T07:36:40.607Z,99.90
2023-04-29T07:39:07.154Z,99.90
2023-04-29T07:41:33.752Z,99.90
2023-04-29T07:44:00.474Z,99.90
2023-04-29T07:46:27.108Z,99.90
2023-04-29T07:48:53.640Z,99.90
2023-04-29T07:51:20.202Z,99.90
2023-04-29T07:53:46.697Z,99.90
2023-04-29T07:56:13.289Z,99.90
2023-04-29T07:58:39.980Z,99.90
2023-04-29T08:01:12.101Z,99.90
2023-04-29T08:03:41.125Z,99.90
2023-04-29T08:06:08.794Z,99.90
2023-04-29T08:08:35.604Z,99.90
2023-04-29T08:11:02.122Z,99.90
2023-04-29T08:13:28.660Z,99.90
2023-04-29T08:15:55.601Z,99.90
2023-04-29T08:18:22.223Z,99.90
2023-04-29T08:20:51.883Z,99.90
2023-04-29T08:23:18.432Z,99.90
2023-04-29T08:25:45.047Z,99.90
2023-04-29T08:28:11.664Z,99.90
2023-04-29T08:30:40.732Z,99.90
2023-04-29T08:33:08.433Z,99.90
2023-04-29T08:35:38.426Z,99.90
2023-04-29T08:38:06.219Z,99.90
2023-04-29T08:40:36.978Z,99.90
2023-04-29T08:43:04.810Z,99.90
2023-04-29T08:45:32.461Z,99.90
2023-04-29T08:48:00.799Z,99.90
2023-04-29T08:50:28.411Z,99.90
2023-04-29T08:52:56.050Z,99.90
2023-04-29T08:55:23.012Z,99.90
2023-04-29T08:57:51.460Z,99.90
2023-04-29T09:00:19.636Z,99.90
2023-04-29T09:02:56.446Z,99.90
2023-04-29T09:05:24.121Z,99.90
2023-04-29T09:07:52.413Z,99.90
2023-04-29T09:10:19.769Z,99.90
2023-04-29T09:12:46.679Z,99.90
2023-04-29T09:15:13.273Z,99.90
2023-04-29T09:17:47.859Z,99.90
2023-04-29T09:20:23.286Z,99.90
2023-04-29T09:22:51.823Z,99.90
2023-04-29T09:25:18.505Z,99.90
2023-04-29T09:27:45.155Z,99.90
2023-04-29T09:30:13.396Z,99.90
2023-04-29T09:32:39.998Z,99.90
2023-04-29T09:35:23.602Z,99.90
2023-04-29T09:37:50.255Z,99.90
2023-04-29T09:40:43.475Z,99.90
2023-04-29T09:43:18.897Z,99.90
2023-04-29T09:45:47.148Z,99.90
2023-04-29T09:48:15.550Z,99.90
2023-04-29T09:50:46.943Z,99.90
2023-04-29T09:53:28.835Z,99.90
2023-04-29T09:56:03.402Z,99.90
2023-04-29T09:58:33.961Z,99.90
2023-04-29T10:01:02.483Z,99.90
2023-04-29T10:03:39.493Z,99.90
2023-04-29T10:06:07.465Z,99.90
2023-04-29T10:08:34.807Z,99.90
2023-04-29T10:11:03.567Z,99.90
2023-04-29T10:13:30.969Z,99.90
2023-04-29T10:16:23.637Z,99.90
2023-04-29T10:18:55.346Z,99.90
2023-04-29T10:21:29.619Z,99.90
2023-04-29T10:23:58.515Z,99.90
2023-04-29T10:26:29.252Z,99.90
2023-04-29T10:28:57.327Z,99.90
2023-04-29T10:31:27.304Z,99.90
2023-04-29T10:33:57.829Z,99.90
2023-04-29T10:36:28.336Z,99.90
2023-04-29T10:38:58.124Z,99.90
2023-04-29T10:41:33.653Z,99.90
2023-04-29T10:44:02.155Z,99.90
2023-04-29T10:46:30.363Z,99.90
2023-04-29T10:49:07.041Z,99.90
2023-04-29T10:51:42.329Z,99.90
2023-04-29T10:54:16.828Z,99.90
2023-04-29T10:56:52.505Z,99.90
2023-04-29T10:59:27.871Z,99.90
2023-04-29T11:01:55.087Z,99.90
2023-04-29T11:04:22.883Z,99.90
2023-04-29T11:06:55.218Z,99.90
2023-04-29T11:09:27.940Z,99.90
2023-04-29T11:12:08.594Z,99.90
2023-04-29T11:14:41.359Z,99.90
2023-04-29T11:17:10.317Z,99.90
2023-04-29T11:19:46.102Z,99.90
2023-04-29T11:22:33.835Z,99.90
2023-04-29T11:25:03.142Z,99.90
2023-04-29T11:27:32.290Z,99.90
2023-04-29T11:30:00.239Z,99.90
2023-04-29T11:32:40.188Z,99.90
2023-04-29T11:35:12.372Z,99.90
2023-04-29T11:37:40.149Z,99.90
2023-04-29T11:40:07.728Z,99.90
2023-04-29T11:42:36.578Z,99.90
2023-04-29T11:45:03.838Z,99.90
2023-04-29T11:47:31.157Z,99.90
2023-04-29T11:50:10.013Z,99.90
2023-04-29T11:52:39.127Z,99.90
2023-04-29T11:55:08.495Z,99.90
2023-04-29T11:57:35.878Z,99.90
2023-04-29T12:00:02.753Z,99.90
2023-04-29T12:02:34.591Z,99.90
2023-04-29T12:05:07.368Z,99.90
2023-04-29T12:07:35.539Z,99.90
2023-04-29T12:10:02.093Z,99.90
2023-04-29T12:12:29.575Z,99.90
2023-04-29T12:14:56.503Z,99.90
2023-04-29T12:17:24.314Z,99.90
2023-04-29T12:19:51.180Z,99.90
2023-04-29T12:22:19.561Z,99.90
2023-04-29T12:24:46.692Z,99.90
2023-04-29T12:27:13.488Z,99.90
2023-04-29T12:29:40.617Z,99.90
2023-04-29T12:32:08.935Z,99.90
2023-04-29T12:34:35.634Z,99.90
2023-04-29T12:37:02.361Z,99.90
2023-04-29T12:39:30.185Z,99.90
2023-04-29T12:42:01.410Z,99.90
2023-04-29T12:44:38.464Z,99.90
2023-04-29T12:47:13.495Z,99.90
2023-04-29T12:49:45.245Z,99.90
2023-04-29T12:52:12.624Z,99.90
2023-04-29T12:54:43.342Z,99.90
2023-04-29T12:57:10.953Z,99.90
2023-04-29T12:59:38.492Z,99.90
2023-04-29T13:02:05.356Z,99.90
2023-04-29T13:04:32.422Z,99.90
2023-04-29T13:07:02.748Z,99.90
2023-04-29T13:09:30.451Z,99.90
2023-04-29T13:11:57.664Z,99.90
2023-04-29T13:14:24.289Z,99.90
2023-04-29T13:16:51.177Z,99.90
2023-04-29T13:19:28.145Z,99.90
2023-04-29T13:21:56.920Z,99.90
2023-04-29T13:24:23.739Z,99.90
2023-04-29T13:26:52.379Z,99.90
2023-04-29T13:29:19.514Z,99.90
2023-04-29T13:31:46.112Z,99.90
2023-04-29T13:34:12.823Z,99.90
2023-04-29T13:36:39.420Z,99.90
2023-04-29T13:39:06.117Z,99.20
2023-04-29T13:41:35.201Z,98.40
2023-04-29T13:44:03.063Z,96.60
2023-04-29T13:46:32.475Z,95.70
2023-04-29T13:54:49.149Z,95.70
2023-04-29T13:59:39.966Z,94.60
2023-04-29T14:04:31.738Z,95.80
2023-04-29T14:06:58.474Z,96.20
2023-04-29T14:09:25.151Z,96.40
2023-04-29T14:11:51.827Z,96.70
2023-04-29T14:14:18.378Z,97.30
2023-04-29T14:16:44.906Z,98.00
2023-04-29T14:19:11.573Z,98.00
2023-04-29T14:21:38.093Z,99.10
2023-04-29T14:24:04.702Z,99.90
2023-04-29T14:26:31.836Z,99.90
2023-04-29T14:29:00.057Z,99.90
2023-04-29T14:31:29.096Z,99.90
2023-04-29T14:33:56.827Z,99.90
2023-04-29T14:36:23.565Z,99.90
2023-04-29T14:38:50.214Z,99.90
2023-04-29T14:41:16.937Z,99.90
2023-04-29T14:43:43.700Z,99.90
2023-04-29T14:46:10.639Z,99.90
2023-04-29T14:48:37.274Z,99.90
2023-04-29T14:51:04.214Z,99.90
2023-04-29T14:53:30.811Z,99.90
2023-04-29T14:55:57.498Z,99.90
2023-04-29T14:58:24.083Z,99.90
2023-04-29T15:00:51.114Z,99.90
2023-04-29T15:03:22.368Z,99.90
2023-04-29T15:05:50.834Z,99.90
2023-04-29T15:08:17.954Z,99.90
2023-04-29T15:10:49.873Z,99.90
2023-04-29T15:13:16.415Z,99.90
2023-04-29T15:15:43.023Z,99.90
2023-04-29T15:18:09.673Z,99.90
2023-04-29T15:20:37.443Z,99.90
2023-04-29T15:23:05.246Z,99.90
2023-04-29T15:25:33.463Z,99.90
2023-04-29T15:28:00.454Z,99.90
2023-04-29T15:30:27.486Z,99.90
2023-04-29T15:32:57.042Z,99.90
2023-04-29T15:35:23.652Z,99.90
2023-04-29T15:37:50.240Z,99.90
2023-04-29T15:40:17.454Z,99.90
2023-04-29T15:42:44.233Z,99.90
2023-04-29T15:45:11.581Z,99.90
2023-04-29T15:47:38.212Z,99.90
2023-04-29T15:50:05.304Z,99.90
2023-04-29T15:52:31.804Z,99.90
2023-04-29T15:54:58.460Z,99.90
2023-04-29T15:57:25.812Z,99.90
2023-04-29T15:59:52.633Z,99.90
2023-04-29T16:02:20.273Z,99.90
2023-04-29T16:04:46.857Z,99.90
2023-04-29T16:07:13.452Z,99.90
2023-04-29T16:09:40.007Z,99.90
2023-04-29T16:12:06.621Z,99.90
2023-04-29T16:14:33.363Z,99.90
2023-04-29T16:17:00.642Z,99.90
2023-04-29T16:19:27.296Z,99.90
2023-04-29T16:21:53.896Z,99.90
2023-04-29T16:24:20.785Z,99.90
2023-04-29T16:26:48.063Z,99.90
2023-04-29T16:29:14.732Z,99.90
2023-04-29T16:31:41.600Z,99.90
2023-04-29T16:34:08.771Z,99.90
2023-04-29T16:36:35.921Z,99.90
2023-04-29T16:39:04.143Z,99.90
2023-04-29T16:41:31.876Z,99.90
2023-04-29T16:43:58.753Z,99.90
2023-04-29T16:46:25.831Z,99.90
2023-04-29T16:48:56.497Z,99.90
2023-04-29T16:51:26.423Z,99.90
2023-04-29T16:53:53.430Z,99.90
2023-04-29T16:56:21.596Z,99.90
2023-04-29T16:58:48.560Z,99.90
2023-04-29T17:01:16.055Z,99.90
2023-04-29T17:03:42.710Z,99.90
2023-04-29T17:06:09.718Z,99.90
2023-04-29T17:08:36.519Z,99.90
2023-04-29T17:11:04.972Z,99.90
2023-04-29T17:13:31.557Z,99.90
2023-04-29T17:15:58.198Z,99.90
2023-04-29T17:18:24.996Z,99.90
2023-04-29T17:20:51.543Z,99.90
2023-04-29T17:23:18.242Z,99.90
2023-04-29T17:25:45.023Z,99.90
2023-04-29T17:28:11.770Z,99.90
2023-04-29T17:30:38.374Z,99.90
2023-04-29T17:33:07.959Z,99.90
2023-04-29T17:35:35.402Z,99.90
2023-04-29T17:38:02.019Z,99.90
2023-04-29T17:40:28.744Z,99.90
2023-04-29T17:42:55.326Z,99.90
2023-04-29T17:45:21.850Z,99.90
2023-04-29T17:47:48.543Z,99.90
2023-04-29T17:50:15.431Z,99.90
2023-04-29T17:52:42.429Z,99.90
2023-04-29T17:55:09.673Z,99.90
2023-04-29T17:57:37.839Z,99.90
2023-04-29T18:00:08.355Z,99.90
2023-04-29T18:02:34.954Z,99.90
2023-04-29T18:05:03.218Z,99.90
2023-04-29T18:07:29.839Z,99.90
2023-04-29T18:09:57.052Z,99.90
2023-04-29T18:12:24.553Z,99.90
2023-04-29T18:14:51.769Z,99.90
2023-04-29T18:17:18.577Z,99.90
2023-04-29T18:19:48.389Z,99.90
2023-04-29T18:22:15.335Z,99.90
2023-04-29T18:24:41.897Z,99.90
2023-04-29T18:27:09.423Z,99.90
2023-04-29T18:29:36.033Z,99.90
2023-04-29T18:32:03.436Z,99.90
2023-04-29T18:34:30.995Z,99.90
2023-04-29T18:36:57.568Z,99.90
2023-04-29T18:39:24.070Z,99.90
2023-04-29T18:41:50.903Z,99.90
2023-04-29T18:44:17.557Z,99.90
2023-04-29T18:46:44.262Z,99.90
2023-04-29T18:49:15.864Z,99.90
2023-04-29T18:51:46.531Z,99.90
2023-04-29T18:54:15.124Z,99.90
2023-04-29T18:56:43.147Z,99.90
2023-04-29T18:59:10.086Z,99.90
2023-04-29T19:01:36.626Z,99.90
2023-04-29T19:04:04.540Z,99.90
2023-04-29T19:06:32.275Z,99.90
2023-04-29T19:08:59.157Z,99.90
2023-04-29T19:11:26.357Z,99.90
2023-04-29T19:13:54.292Z,99.90
2023-04-29T19:16:20.903Z,99.90
2023-04-29T19:18:47.618Z,99.90
2023-04-29T19:21:14.756Z,99.90
2023-04-29T19:23:41.742Z,99.90
2023-04-29T19:26:09.135Z,99.90
2023-04-29T19:28:36.028Z,99.90
2023-04-29T19:31:03.149Z,99.90
2023-04-29T19:33:30.856Z,99.90
2023-04-29T19:35:57.435Z,99.90
2023-04-29T19:38:25.407Z,99.90
2023-04-29T19:40:54.639Z,99.90
2023-04-29T19:43:21.292Z,99.90
2023-04-29T19:45:47.888Z,99.90
2023-04-29T19:48:14.655Z,99.90
2023-04-29T19:50:41.856Z,99.90
2023-04-29T19:53:08.490Z,99.90
2023-04-29T19:55:35.025Z,99.90
2023-04-29T19:58:01.598Z,99.90
2023-04-29T20:00:28.156Z,99.90
2023-04-29T20:02:55.024Z,99.90
2023-04-29T20:05:22.388Z,99.90
2023-04-29T20:07:49.668Z,99.90
2023-04-29T20:10:16.244Z,99.90
2023-04-29T20:12:42.771Z,99.90
2023-04-29T20:15:09.723Z,99.90
2023-04-29T20:17:37.354Z,99.90
2023-04-29T20:20:04.351Z,99.90
2023-04-29T20:22:31.027Z,99.90
2023-04-29T20:24:57.524Z,99.90
2023-04-29T20:27:24.280Z,99.90
2023-04-29T20:29:50.875Z,99.90
2023-04-29T20:32:17.781Z,99.90
2023-04-29T20:34:44.504Z,99.90
2023-04-29T20:37:11.063Z,99.90
2023-04-29T20:39:38.989Z,99.90
2023-04-29T20:42:05.982Z,99.90
2023-04-29T20:44:33.226Z,99.90
2023-04-29T20:46:59.783Z,99.90
2023-04-29T20:49:26.621Z,99.90
2023-04-29T20:51:53.154Z,99.90
2023-04-29T20:54:19.674Z,99.90
2023-04-29T20:56:46.394Z,99.90
2023-04-29T20:59:12.958Z,99.90
2023-04-29T21:01:39.791Z,99.90
2023-04-29T21:04:06.847Z,99.90
2023-04-29T21:06:33.785Z,99.90
2023-04-29T21:09:00.580Z,99.90
2023-04-29T21:11:27.124Z,99.90
2023-04-29T21:13:53.643Z,99.90
2023-04-29T21:16:20.344Z,99.90
2023-04-29T21:18:46.904Z,99.90
2023-04-29T21:21:13.426Z,99.90
2023-04-29T21:23:39.959Z,99.90
2023-04-29T21:26:06.511Z,99.90
2023-04-29T21:28:33.354Z,99.90
2023-04-29T21:30:59.904Z,99.90
2023-04-29T21:33:26.533Z,99.90
2023-04-29T21:35:53.084Z,99.90
2023-04-29T21:38:19.635Z,99.90
2023-04-29T21:40:47.358Z,99.90
2023-04-29T21:43:15.739Z,99.90
2023-04-29T21:45:42.924Z,99.90
2023-04-29T21:48:17.934Z,99.90
2023-04-29T21:50:45.052Z,99.90
2023-04-29T21:53:14.448Z,99.90
2023-04-29T21:55:42.861Z,99.90
2023-04-29T21:58:10.744Z,99.90
2023-04-29T22:00:40.399Z,99.90
2023-04-29T22:03:11.349Z,99.90
2023-04-29T22:05:38.123Z,99.90
2023-04-29T22:08:07.703Z,99.90
2023-04-29T22:10:34.601Z,99.90
2023-04-29T22:13:01.183Z,99.90
2023-04-29T22:15:29.214Z,99.90
2023-04-29T22:17:57.111Z,99.90
2023-04-29T22:20:24.107Z,99.90
2023-04-29T22:22:51.204Z,99.90
2023-04-29T22:25:19.660Z,99.90
2023-04-29T22:27:46.302Z,99.90
2023-04-29T22:30:13.638Z,99.90
2023-04-29T22:32:40.585Z,99.90
2023-04-29T22:35:07.640Z,99.90
2023-04-29T22:37:34.149Z,99.90
2023-04-29T22:40:00.695Z,99.90
2023-04-29T22:42:27.207Z,99.90
2023-04-29T22:44:53.736Z,99.90
2023-04-29T22:47:20.243Z,99.90
2023-04-29T22:49:46.863Z,99.90
2023-04-29T22:52:13.396Z,99.90
2023-04-29T22:54:39.933Z,99.90
2023-04-29T22:57:07.241Z,99.90
2023-04-29T22:59:33.791Z,99.90
2023-04-29T23:02:00.384Z,99.90
2023-04-29T23:04:26.936Z,99.90
2023-04-29T23:06:53.487Z,99.90
2023-04-29T23:09:20.271Z,99.90
2023-04-29T23:11:46.831Z,99.90
2023-04-29T23:14:13.529Z,99.90
2023-04-29T23:16:40.080Z,99.90
2023-04-29T23:19:06.810Z,99.90
2023-04-29T23:21:33.299Z,99.90
2023-04-29T23:23:59.841Z,99.90
2023-04-29T23:26:26.577Z,99.90
2023-04-29T23:28:53.063Z,99.90
2023-04-29T23:31:19.683Z,99.90
2023-04-29T23:33:46.319Z,99.90
2023-04-29T23:36:13.085Z,99.90
2023-04-29T23:38:39.615Z,99.90
2023-04-29T23:41:06.163Z,99.90
2023-04-29T23:43:32.662Z,99.90
2023-04-29T23:45:59.188Z,99.90
2023-04-29T23:48:25.753Z,99.90
2023-04-29T23:50:52.257Z,99.90
2023-04-29T23:53:18.804Z,99.90
2023-04-29T23:55:45.388Z,99.90
2023-04-29T23:58:11.965Z,99.90
